Terminal Aerodrome Forecast
Issued by NWS Oklahoma City, OK

Home | Current Version | Previous Version | Text Only | Print | Product List | Glossary On
Versions: 1 2 3 4 5 6 7 8 9 10 11 12 13
000
FTUS44 KOUN 222331
TAFOUN
TAF
KOUN 222331Z 2300/2324 12012KT P6SM BKN027
     FM230400 16012KT P6SM BKN020
     FM231400 18015G25KT P6SM OVC009
     FM231900 18017G27KT P6SM SCT035=

USA.gov is the U.S. government's official web portal to all federal, state and local government web resources and services.